createdAt,value
2023-12-14T08:09:57.200Z,5.38
2023-12-14T08:10:57.513Z,5.44
2023-12-14T08:11:57.382Z,5.54
2023-12-14T08:12:57.246Z,5.62
2023-12-14T08:13:57.384Z,5.61
2023-12-14T08:14:57.228Z,5.54
2023-12-14T08:15:57.725Z,5.59
2023-12-14T08:16:57.162Z,5.61
2023-12-14T08:17:57.225Z,5.66
2023-12-14T08:18:59.121Z,5.59
2023-12-14T08:20:00.485Z,5.61
2023-12-14T08:21:08.918Z,5.72
2023-12-14T08:22:00.034Z,5.75
2023-12-14T08:22:59.522Z,5.68
2023-12-14T08:23:58.671Z,5.61
2023-12-14T08:24:58.978Z,5.69
2023-12-14T08:25:58.618Z,5.68
2023-12-14T08:26:58.553Z,5.71
2023-12-14T08:28:00.653Z,5.71
2023-12-14T08:28:58.996Z,5.71
2023-12-14T08:29:59.654Z,5.79
2023-12-14T08:31:01.856Z,5.66
2023-12-14T08:31:58.595Z,5.66
2023-12-14T08:32:58.837Z,5.65
2023-12-14T08:33:58.857Z,5.66
2023-12-14T08:34:59.684Z,5.62
2023-12-14T08:35:59.826Z,5.65
2023-12-14T08:36:58.915Z,5.65
2023-12-14T08:37:59.710Z,5.64
2023-12-14T08:38:58.468Z,5.62
2023-12-14T08:39:58.832Z,5.69
2023-12-14T08:40:58.558Z,5.56
2023-12-14T08:41:58.562Z,5.69
2023-12-14T08:42:58.994Z,5.68
2023-12-14T08:44:00.525Z,5.66
2023-12-14T08:44:58.837Z,5.59
2023-12-14T08:45:59.417Z,5.73
2023-12-14T08:47:02.197Z,5.61
2023-12-14T08:47:58.616Z,5.69
2023-12-14T08:48:59.739Z,5.61
2023-12-14T08:49:58.778Z,5.69
2023-12-14T08:50:58.323Z,5.51
2023-12-14T08:51:58.412Z,5.66
2023-12-14T08:52:58.380Z,5.59
2023-12-14T08:54:02.227Z,5.65
2023-12-14T08:54:59.092Z,5.62
2023-12-14T08:55:59.007Z,5.50
2023-12-14T08:56:58.748Z,5.53
2023-12-14T08:58:33.721Z,5.46
2023-12-14T08:59:02.068Z,5.41
2023-12-14T08:59:59.485Z,5.39
2023-12-14T09:01:05.102Z,5.39
2023-12-14T09:01:58.741Z,5.48
2023-12-14T09:03:21.553Z,5.43
2023-12-14T09:18:24.183Z,5.32
2023-12-14T09:19:43.114Z,5.32
2023-12-14T09:20:27.382Z,5.35
2023-12-14T09:21:33.582Z,5.30
2023-12-14T09:22:28.348Z,5.39
2023-12-14T09:23:24.836Z,5.33
2023-12-14T09:24:36.055Z,5.35
2023-12-14T09:25:24.760Z,5.32
2023-12-14T09:26:24.571Z,5.29
2023-12-14T09:27:26.564Z,5.35
2023-12-14T09:28:24.875Z,5.32
2023-12-14T09:29:26.537Z,5.33
2023-12-14T09:30:25.271Z,5.36
2023-12-14T09:32:00.831Z,5.35
2023-12-14T09:32:26.317Z,5.33
2023-12-14T09:33:26.099Z,5.28
2023-12-14T09:34:36.881Z,5.33
2023-12-14T09:35:25.621Z,5.26
2023-12-14T09:38:39.077Z,5.32
2023-12-14T09:39:39.164Z,5.35
2023-12-14T09:40:39.158Z,5.35
2023-12-14T09:41:39.585Z,5.30
2023-12-14T09:42:39.283Z,5.29
2023-12-14T09:43:39.417Z,5.33
2023-12-14T09:44:39.054Z,5.26
2023-12-14T09:45:39.102Z,5.25
2023-12-14T09:46:39.107Z,5.30
2023-12-14T09:47:39.736Z,5.29
2023-12-14T09:48:41.011Z,5.29
2023-12-14T09:49:51.418Z,5.17
2023-12-14T09:50:42.278Z,5.17
2023-12-14T09:51:40.531Z,5.20
2023-12-14T09:52:42.336Z,5.21
2023-12-14T09:53:41.409Z,5.25
2023-12-14T09:54:40.483Z,5.23
2023-12-14T09:55:40.104Z,5.32
2023-12-14T09:56:41.681Z,5.23
2023-12-14T10:00:10.947Z,5.14
2023-12-14T10:01:29.183Z,5.12
2023-12-14T10:02:15.542Z,5.21
2023-12-14T10:06:24.807Z,5.07
2023-12-14T10:07:25.408Z,5.10
2023-12-14T10:08:25.329Z,5.11
2023-12-14T10:09:59.479Z,5.10
2023-12-14T10:10:27.191Z,5.12
2023-12-14T10:11:26.084Z,5.07
2023-12-14T10:15:16.278Z,5.00
2023-12-14T10:16:32.818Z,5.02
2023-12-14T10:17:16.232Z,5.02
2023-12-14T10:18:18.094Z,5.07
2023-12-14T10:19:18.224Z,5.15
2023-12-14T10:20:17.734Z,5.14
2023-12-14T10:21:17.894Z,5.11
2023-12-14T10:22:20.332Z,5.11
2023-12-14T10:23:17.547Z,5.10
2023-12-14T10:24:20.417Z,5.12
2023-12-14T10:25:19.882Z,5.12
2023-12-14T10:26:17.521Z,5.08
2023-12-14T10:27:17.920Z,4.99
2023-12-14T10:28:17.952Z,5.07
2023-12-14T10:31:26.203Z,5.02
2023-12-14T10:32:26.771Z,5.00
2023-12-14T10:33:32.564Z,5.02
2023-12-14T11:12:53.177Z,4.94
2023-12-14T11:29:18.288Z,4.89
2023-12-14T11:52:16.123Z,4.74
2023-12-14T11:56:38.980Z,4.70
2023-12-14T12:00:52.630Z,4.75
2023-12-14T12:06:34.500Z,4.74
2023-12-14T12:09:26.868Z,4.82
2023-12-14T12:12:07.483Z,4.67
2023-12-14T12:13:12.578Z,4.78
2023-12-14T12:15:58.534Z,4.77
2023-12-14T12:16:59.214Z,4.80
2023-12-14T12:18:35.821Z,4.71
2023-12-14T12:19:02.356Z,4.78
2023-12-14T12:20:00.737Z,4.84
2023-12-14T12:25:01.080Z,4.74
2023-12-14T12:32:30.185Z,4.58
2023-12-14T12:33:40.584Z,4.62
2023-12-14T12:36:15.428Z,4.59
2023-12-14T12:37:23.285Z,4.52
2023-12-14T12:38:29.143Z,4.55
2023-12-14T12:39:23.445Z,4.45
2023-12-14T12:40:50.400Z,4.50
2023-12-14T12:41:20.027Z,4.48
2023-12-14T12:44:59.956Z,4.44
2023-12-14T12:46:02.286Z,4.53
2023-12-14T12:47:08.664Z,4.63
2023-12-14T12:48:30.682Z,4.59
2023-12-14T12:49:35.445Z,4.53
2023-12-14T12:50:02.703Z,4.53
2023-12-14T12:53:44.560Z,4.45
2023-12-14T12:54:45.449Z,4.49
2023-12-14T13:01:13.694Z,4.59
2023-12-14T13:03:20.119Z,4.58
2023-12-14T13:04:30.144Z,4.53
2023-12-14T13:09:49.089Z,4.59
2023-12-14T13:11:44.020Z,4.63
2023-12-14T13:11:51.048Z,4.62
2023-12-14T13:12:51.230Z,4.62
2023-12-14T13:13:51.890Z,4.62
2023-12-14T13:14:51.273Z,4.62
2023-12-14T13:15:52.581Z,4.59
2023-12-14T13:16:51.341Z,4.62
2023-12-14T13:17:50.724Z,4.55
2023-12-14T13:18:51.366Z,4.59
2023-12-14T13:19:51.247Z,4.70
2023-12-14T13:20:50.626Z,4.67
2023-12-14T13:21:55.456Z,4.70
2023-12-14T13:22:50.769Z,4.59
2023-12-14T13:27:03.658Z,4.71
2023-12-14T13:28:04.528Z,4.62
2023-12-14T13:29:04.649Z,4.62
2023-12-14T13:30:10.029Z,4.58
2023-12-14T13:31:06.405Z,4.62
2023-12-14T13:32:07.133Z,4.58
2023-12-14T13:33:05.401Z,4.63
2023-12-14T13:34:07.814Z,4.63
2023-12-14T13:35:09.173Z,4.62
2023-12-14T13:36:07.016Z,4.56
2023-12-14T13:37:09.244Z,4.60
2023-12-14T13:38:05.036Z,4.63
2023-12-14T13:39:07.108Z,4.63
2023-12-14T13:40:06.054Z,4.60
2023-12-14T13:41:52.539Z,4.56
2023-12-14T13:42:14.425Z,4.63
2023-12-14T13:43:07.731Z,4.58
2023-12-14T13:44:05.010Z,4.59
2023-12-14T13:45:05.075Z,4.60
2023-12-14T13:46:14.470Z,4.63
2023-12-14T13:47:08.159Z,4.58
2023-12-14T13:48:06.581Z,4.60
2023-12-14T13:49:06.941Z,4.48
2023-12-14T13:50:12.708Z,4.56
2023-12-14T13:51:06.417Z,4.58
2023-12-14T13:52:05.671Z,4.66
2023-12-14T13:53:05.228Z,4.56
2023-12-14T13:54:06.495Z,4.56
2023-12-14T13:55:05.913Z,4.55
2023-12-14T13:56:06.593Z,4.60
2023-12-14T13:57:05.052Z,4.60
2023-12-14T13:58:05.582Z,4.71
2023-12-14T13:59:05.024Z,4.66
2023-12-14T14:00:06.596Z,4.63
2023-12-14T14:01:09.564Z,4.74
2023-12-14T14:02:04.779Z,4.71
2023-12-14T14:03:05.484Z,4.73
2023-12-14T14:04:04.678Z,4.73
2023-12-14T14:05:22.156Z,4.70
2023-12-14T14:06:05.834Z,4.78
2023-12-14T14:07:04.742Z,4.78
2023-12-14T14:08:04.968Z,4.78
2023-12-14T14:09:04.757Z,4.82
2023-12-14T14:10:04.629Z,4.84
2023-12-14T14:11:05.522Z,4.77
2023-12-14T14:12:06.252Z,4.82
2023-12-14T14:13:21.053Z,4.84
2023-12-14T14:14:05.734Z,4.74
2023-12-14T14:15:04.567Z,4.75
2023-12-14T14:16:05.543Z,4.77
2023-12-14T14:17:05.580Z,4.78
2023-12-14T14:18:04.518Z,4.84
2023-12-14T14:19:04.785Z,4.80
2023-12-14T14:20:04.558Z,4.78
2023-12-14T14:21:04.767Z,4.94
2023-12-14T14:22:07.231Z,4.92
2023-12-14T14:23:05.002Z,4.94
2023-12-14T14:24:06.537Z,4.92
2023-12-14T14:25:05.192Z,4.93
2023-12-14T14:26:12.303Z,4.90
2023-12-14T14:27:57.264Z,4.77
2023-12-14T14:31:26.805Z,4.80
2023-12-14T14:32:28.767Z,4.89
2023-12-14T14:33:29.838Z,4.87
2023-12-14T14:35:07.239Z,4.82
2023-12-14T14:35:28.952Z,4.84
2023-12-14T14:36:28.712Z,4.78
2023-12-14T14:37:28.280Z,4.80
2023-12-14T14:38:30.489Z,4.78
2023-12-14T14:39:28.904Z,4.80
2023-12-14T14:40:29.276Z,4.90
2023-12-14T14:41:29.877Z,4.89
2023-12-14T14:42:30.624Z,4.90
2023-12-14T14:43:29.060Z,4.84
2023-12-14T14:44:29.619Z,4.89
2023-12-14T14:45:28.761Z,4.90
2023-12-14T14:46:30.737Z,4.78
2023-12-14T14:47:28.431Z,4.93
2023-12-14T14:48:28.808Z,4.90
2023-12-14T14:49:28.373Z,4.89
2023-12-14T14:50:28.296Z,4.89
2023-12-14T14:51:29.386Z,4.82
2023-12-14T14:52:28.420Z,4.73
2023-12-14T14:53:28.221Z,4.80
2023-12-14T14:54:28.097Z,4.84
2023-12-14T14:55:28.434Z,4.82
2023-12-14T14:56:29.321Z,4.82
2023-12-14T14:57:27.862Z,4.71
2023-12-14T14:58:30.629Z,4.74
2023-12-14T14:59:28.245Z,4.75
2023-12-14T15:00:28.755Z,4.75
2023-12-14T15:01:28.357Z,4.87
2023-12-14T15:02:28.156Z,4.77
2023-12-14T15:21:16.454Z,4.59
2023-12-14T15:22:13.257Z,4.59
2023-12-14T15:23:16.522Z,4.60
2023-12-14T15:24:36.184Z,4.59
2023-12-14T15:26:20.347Z,4.45
2023-12-14T15:26:29.401Z,4.49
2023-12-14T15:28:11.519Z,4.49
2023-12-14T15:31:25.989Z,4.53
2023-12-14T15:31:35.845Z,4.41
2023-12-14T15:32:40.564Z,4.52
2023-12-14T15:33:41.654Z,4.41
2023-12-14T15:34:34.842Z,4.48
2023-12-14T15:35:40.473Z,4.45
2023-12-14T15:36:33.084Z,4.49
2023-12-14T15:37:54.292Z,4.41
2023-12-14T15:38:34.186Z,4.38
2023-12-14T15:39:42.022Z,4.38
2023-12-14T15:40:40.005Z,4.40
2023-12-14T15:45:16.942Z,4.41
2023-12-14T15:46:19.577Z,4.40
2023-12-14T15:47:26.519Z,4.45
2023-12-14T15:49:03.333Z,4.38
2023-12-14T15:49:26.512Z,4.38
2023-12-14T15:50:20.312Z,4.38
2023-12-14T15:51:53.585Z,4.41
2023-12-14T15:53:32.910Z,4.40
2023-12-14T15:54:34.959Z,4.40
2023-12-14T15:55:13.307Z,4.40
2023-12-14T15:56:00.303Z,4.40
2023-12-14T15:57:02.738Z,4.42
2023-12-14T16:18:26.334Z,4.44
2023-12-14T16:19:36.871Z,4.41
2023-12-14T16:20:28.884Z,4.40
2023-12-14T16:21:28.978Z,4.45
2023-12-14T16:22:27.856Z,4.48
2023-12-14T16:23:29.157Z,4.41
2023-12-14T16:24:38.522Z,4.42
2023-12-14T16:25:30.080Z,4.41
2023-12-14T16:26:28.746Z,4.49
2023-12-14T16:27:28.764Z,4.45
2023-12-14T16:28:30.651Z,4.42
2023-12-14T16:29:28.527Z,4.31
2023-12-14T16:30:28.638Z,4.38
2023-12-14T16:31:29.021Z,4.37
2023-12-14T16:32:36.568Z,4.32
2023-12-14T16:33:27.643Z,4.32
2023-12-14T16:34:28.698Z,4.34
2023-12-14T16:35:28.357Z,4.30
2023-12-14T16:36:28.720Z,4.34
2023-12-14T16:37:28.886Z,4.30
2023-12-14T16:38:27.352Z,4.32
2023-12-14T16:39:33.153Z,4.32
2023-12-14T16:40:28.464Z,4.28
2023-12-14T16:41:30.074Z,4.13
2023-12-14T16:42:34.354Z,4.22
2023-12-14T16:43:38.053Z,4.08
2023-12-14T16:44:38.422Z,4.14
2023-12-14T16:45:33.308Z,4.23
2023-12-14T16:46:27.359Z,4.23
2023-12-14T16:47:31.040Z,4.17
2023-12-14T16:48:28.388Z,4.22
2023-12-14T16:49:28.533Z,4.17
2023-12-14T16:50:27.929Z,4.12
2023-12-14T16:51:29.380Z,4.17
2023-12-14T16:52:27.975Z,4.10
2023-12-14T16:53:28.523Z,4.04
2023-12-14T16:54:34.682Z,4.04
2023-12-14T16:55:30.066Z,3.99
2023-12-14T16:56:34.970Z,3.83
2023-12-14T16:57:33.549Z,3.88
2023-12-14T16:58:29.032Z,3.78
2023-12-14T16:59:27.425Z,3.81
2023-12-14T17:00:28.289Z,3.78
2023-12-14T17:01:28.512Z,3.74
2023-12-14T17:02:28.424Z,3.70
2023-12-14T17:03:27.738Z,3.63
2023-12-14T17:04:27.800Z,3.47
2023-12-14T17:05:43.799Z,3.62
2023-12-14T17:52:07.663Z,2.68
2023-12-14T17:55:49.851Z,2.68
2023-12-14T17:56:52.828Z,2.72
2023-12-14T17:57:49.656Z,2.74
2023-12-14T17:58:49.952Z,2.64
2023-12-14T17:59:49.630Z,2.53
2023-12-14T18:00:49.704Z,2.71
2023-12-14T18:01:52.270Z,2.71
2023-12-14T18:02:50.807Z,2.71
2023-12-14T18:03:51.864Z,2.72
2023-12-14T18:04:50.907Z,2.74
2023-12-14T18:05:50.863Z,2.68
2023-12-14T18:06:50.858Z,2.67
2023-12-14T18:07:51.077Z,2.67
2023-12-14T18:08:50.949Z,2.64
2023-12-14T18:09:50.830Z,2.53
2023-12-14T18:10:50.965Z,2.51
2023-12-14T18:11:51.000Z,2.46
2023-12-14T18:12:50.966Z,2.38
2023-12-14T18:13:50.995Z,2.32
2023-12-14T18:14:50.778Z,2.24
2023-12-14T18:15:51.145Z,2.24
2023-12-14T18:16:50.810Z,2.20
2023-12-14T18:17:50.969Z,2.25
2023-12-14T18:18:50.772Z,2.28
2023-12-14T18:19:50.838Z,2.26
2023-12-14T18:20:50.732Z,2.25
2023-12-14T18:21:50.710Z,2.38
2023-12-14T18:22:50.760Z,2.35
2023-12-14T18:23:50.724Z,2.47
2023-12-14T18:24:50.682Z,2.29
2023-12-14T18:25:50.731Z,2.33
2023-12-14T18:26:50.713Z,2.24
2023-12-14T18:27:50.749Z,2.28
2023-12-14T18:28:50.705Z,2.26
2023-12-14T18:29:50.709Z,2.32
2023-12-14T18:30:50.784Z,2.33
2023-12-14T18:31:50.948Z,2.35
2023-12-14T18:32:50.823Z,2.43
2023-12-14T18:33:50.648Z,2.38
2023-12-14T18:34:50.804Z,2.36
2023-12-14T18:35:50.593Z,2.32
2023-12-14T18:36:50.630Z,2.25
2023-12-14T18:37:52.860Z,2.31
2023-12-14T18:38:51.616Z,2.31
2023-12-14T18:39:50.546Z,2.31
2023-12-14T18:40:50.573Z,2.31
2023-12-14T18:41:50.789Z,2.36
2023-12-14T18:42:50.526Z,2.32
2023-12-14T18:44:23.337Z,2.32
2023-12-14T18:44:51.044Z,2.33
2023-12-14T18:49:56.621Z,2.28
2023-12-14T18:50:56.667Z,2.18
2023-12-14T18:51:56.601Z,2.17
2023-12-14T18:52:56.784Z,2.14
2023-12-14T18:53:57.776Z,2.00
2023-12-14T18:54:58.068Z,2.11
2023-12-14T18:55:57.872Z,2.20
2023-12-14T18:57:04.990Z,2.14
2023-12-14T18:57:57.677Z,2.25
2023-12-14T18:58:57.706Z,2.00
2023-12-14T18:59:57.630Z,1.88
2023-12-14T19:00:57.684Z,1.85
2023-12-14T19:01:57.644Z,1.87
2023-12-14T19:02:57.661Z,1.85
2023-12-14T19:03:57.673Z,1.78
2023-12-14T19:04:57.601Z,1.94
2023-12-14T19:08:12.145Z,1.88
2023-12-14T19:09:12.149Z,1.80
2023-12-14T19:10:41.032Z,1.92
2023-12-14T19:11:14.090Z,2.00
2023-12-14T19:12:45.740Z,1.81
2023-12-14T19:13:13.650Z,1.88
2023-12-14T19:16:19.985Z,1.89
2023-12-14T19:17:20.074Z,1.91
2023-12-14T19:20:37.869Z,1.97
2023-12-14T19:21:37.920Z,1.88
2023-12-14T19:22:39.418Z,1.99
2023-12-14T19:25:54.736Z,2.07
2023-12-14T19:27:03.024Z,2.06
2023-12-14T19:28:03.018Z,1.91
2023-12-14T19:29:03.640Z,1.91
2023-12-14T19:29:54.657Z,1.91
2023-12-14T19:30:54.715Z,1.85
2023-12-14T19:32:02.283Z,1.87
2023-12-14T19:35:34.167Z,1.97
2023-12-14T19:36:41.806Z,2.00
2023-12-14T19:37:34.747Z,2.07
2023-12-14T19:38:43.111Z,2.13
2023-12-14T19:39:34.190Z,2.14
2023-12-14T19:40:43.577Z,2.25
2023-12-14T19:43:01.083Z,2.26
2023-12-14T19:45:51.034Z,2.44
2023-12-14T19:49:36.408Z,2.54
2023-12-14T19:50:36.509Z,2.56
2023-12-14T19:53:26.435Z,2.65
2023-12-14T19:54:34.123Z,2.64
2023-12-14T19:55:34.060Z,2.65
2023-12-14T19:57:53.378Z,2.68
2023-12-14T19:59:01.156Z,2.64
2023-12-14T19:59:53.353Z,2.57
2023-12-14T20:01:02.198Z,2.51
2023-12-14T20:01:53.873Z,2.64
2023-12-14T20:03:01.097Z,2.64
2023-12-14T20:04:01.046Z,2.67
2023-12-14T20:05:00.967Z,2.67
2023-12-14T20:05:53.422Z,2.68
2023-12-14T20:06:53.292Z,2.61
2023-12-14T20:07:53.542Z,2.60
2023-12-14T20:08:54.556Z,2.57
2023-12-14T20:10:00.629Z,2.71
2023-12-14T20:10:55.535Z,2.67
2023-12-14T20:11:54.384Z,2.68
2023-12-14T20:12:54.619Z,2.64
2023-12-14T20:14:27.257Z,2.68
2023-12-14T20:14:54.691Z,2.72
2023-12-14T20:15:54.596Z,2.65
2023-12-14T20:17:31.116Z,2.61
2023-12-14T20:17:55.003Z,2.61
2023-12-14T20:19:28.045Z,2.65
2023-12-14T20:19:54.778Z,2.68
2023-12-14T20:21:29.682Z,2.67
2023-12-14T20:22:01.776Z,2.64
2023-12-14T20:22:56.675Z,2.65
2023-12-14T20:24:32.588Z,2.62
2023-12-14T20:24:56.408Z,2.75
2023-12-14T20:25:54.312Z,2.75
2023-12-14T20:26:54.771Z,2.67
2023-12-14T20:27:54.250Z,2.61
2023-12-14T20:28:54.391Z,2.57
2023-12-14T20:29:54.319Z,2.61
2023-12-14T20:31:26.937Z,2.54
2023-12-14T20:31:54.466Z,2.69
2023-12-14T20:33:27.904Z,2.60
2023-12-14T20:33:54.566Z,2.68
2023-12-14T20:35:26.947Z,2.72
2023-12-14T20:35:54.594Z,2.62
2023-12-14T20:36:54.401Z,2.60
2023-12-14T20:37:54.170Z,2.57
2023-12-14T20:39:29.415Z,2.71
2023-12-14T20:39:54.696Z,2.68
2023-12-14T20:40:54.192Z,2.69
2023-12-14T20:42:26.764Z,2.61
2023-12-14T20:42:54.641Z,2.65
2023-12-14T20:44:28.100Z,2.67
2023-12-14T20:45:26.635Z,2.54
2023-12-14T20:46:26.682Z,2.43
2023-12-14T20:47:26.630Z,2.44
2023-12-14T20:48:28.149Z,2.47
2023-12-14T20:49:26.781Z,2.22
2023-12-14T20:50:26.739Z,2.15
2023-12-14T20:50:54.247Z,2.10
2023-12-14T20:52:27.777Z,2.15
2023-12-14T20:52:54.401Z,2.13
2023-12-14T20:54:26.646Z,2.25
2023-12-14T20:55:26.493Z,2.33
2023-12-14T20:56:26.604Z,2.32
2023-12-14T20:56:54.270Z,2.43
2023-12-14T20:57:54.170Z,2.56
2023-12-14T20:59:20.575Z,2.51
2023-12-14T20:59:54.282Z,2.56
2023-12-14T21:01:27.669Z,2.50
2023-12-14T21:02:28.280Z,2.67
2023-12-14T21:02:54.084Z,2.61
2023-12-14T21:04:26.438Z,2.75
2023-12-14T21:05:21.967Z,2.65
2023-12-14T21:05:54.386Z,2.71
2023-12-14T21:06:54.106Z,2.71
2023-12-14T21:08:26.630Z,2.87
2023-12-14T21:08:54.232Z,2.85
2023-12-14T21:09:54.015Z,2.89
2023-12-14T21:11:28.113Z,2.95
2023-12-14T21:12:26.661Z,2.82
2023-12-14T21:12:54.238Z,2.87
2023-12-14T21:14:26.568Z,2.93
2023-12-14T21:14:54.024Z,2.97
2023-12-14T21:16:27.503Z,2.95
2023-12-14T21:16:54.233Z,2.95
2023-12-14T21:17:54.083Z,2.90
2023-12-14T21:18:53.959Z,2.89
2023-12-14T21:19:54.182Z,2.82
2023-12-14T21:20:57.763Z,2.92
2023-12-14T21:21:53.865Z,2.90
2023-12-14T21:22:53.843Z,2.68
2023-12-14T21:23:53.756Z,2.57
2023-12-14T21:24:53.844Z,2.61
2023-12-14T21:26:39.000Z,2.61
2023-12-14T21:26:54.286Z,2.68
2023-12-14T21:27:54.554Z,2.64
2023-12-14T21:28:53.663Z,2.68
2023-12-14T21:29:53.609Z,2.67
2023-12-14T21:31:26.275Z,2.68
2023-12-14T21:32:27.591Z,2.51
2023-12-14T21:33:26.354Z,2.56
2023-12-14T21:34:27.531Z,2.49
2023-12-14T21:34:54.026Z,2.54
2023-12-14T21:36:26.302Z,2.61
2023-12-14T21:37:26.308Z,2.65
2023-12-14T21:38:20.516Z,2.75
2023-12-14T21:39:28.092Z,2.64
2023-12-14T21:40:26.129Z,2.62
2023-12-14T21:41:26.155Z,2.75
2023-12-14T21:41:53.846Z,2.74
2023-12-14T21:43:26.243Z,2.72
2023-12-14T21:44:27.340Z,2.68
2023-12-14T21:44:53.720Z,2.65
2023-12-14T21:45:53.710Z,2.69
2023-12-14T21:47:26.190Z,2.83
2023-12-14T21:48:27.415Z,2.82
2023-12-14T21:48:53.928Z,2.83
2023-12-14T21:50:26.079Z,2.72
2023-12-14T21:51:02.588Z,2.72
2023-12-14T21:52:25.992Z,2.82
2023-12-14T21:53:27.510Z,2.85
2023-12-14T21:54:25.964Z,3.00
2023-12-14T21:55:26.031Z,2.89
2023-12-14T21:55:53.996Z,3.01
2023-12-14T21:57:26.033Z,2.98
2023-12-14T21:57:53.670Z,3.07
2023-12-14T21:58:53.588Z,3.03
2023-12-14T22:00:25.910Z,3.01
2023-12-14T22:00:53.633Z,3.05
2023-12-14T22:01:53.550Z,2.97
2023-12-14T22:03:20.980Z,3.08
2023-12-14T22:03:53.414Z,3.01
2023-12-14T22:05:25.866Z,3.05
2023-12-14T22:06:25.871Z,3.11
2023-12-14T22:07:27.007Z,3.04
2023-12-14T22:08:25.826Z,2.95
2023-12-14T22:09:25.886Z,2.90
2023-12-14T22:09:53.457Z,2.86
2023-12-14T22:11:26.084Z,2.87
2023-12-14T22:12:27.068Z,2.95
2023-12-14T22:12:55.616Z,2.82
2023-12-14T22:14:25.780Z,2.82
2023-12-14T22:15:25.777Z,2.79
2023-12-14T22:16:27.270Z,2.90
2023-12-14T22:17:27.315Z,2.90
2023-12-14T22:18:25.748Z,2.89
2023-12-14T22:18:53.506Z,2.82
2023-12-14T22:19:53.469Z,2.72
2023-12-14T22:21:26.815Z,2.75
2023-12-14T22:22:25.700Z,2.83
2023-12-14T22:23:27.135Z,2.82
2023-12-14T22:23:53.451Z,2.92
2023-12-14T22:25:26.783Z,3.03
2023-12-14T22:25:53.380Z,2.90
2023-12-14T22:27:25.655Z,3.03
2023-12-14T22:28:25.637Z,3.08
2023-12-14T22:28:53.449Z,3.07
2023-12-14T22:30:26.912Z,3.08
2023-12-14T22:30:53.346Z,3.05
2023-12-14T22:31:53.174Z,3.11
2023-12-14T22:33:25.731Z,3.10
2023-12-14T22:33:53.384Z,3.14
2023-12-14T22:35:26.970Z,3.07
2023-12-14T22:35:53.204Z,3.14
2023-12-14T22:37:25.662Z,3.01
2023-12-14T22:38:25.674Z,3.21
2023-12-14T22:39:26.938Z,3.13
2023-12-14T22:40:27.570Z,3.13
2023-12-14T22:41:25.563Z,3.16
2023-12-14T22:42:25.563Z,3.16
2023-12-14T22:42:53.393Z,3.10
2023-12-14T22:43:53.151Z,3.05
2023-12-14T22:45:26.590Z,3.16
2023-12-14T22:45:53.265Z,3.11
2023-12-14T22:47:25.546Z,3.11
2023-12-14T22:47:53.302Z,3.19
2023-12-14T22:48:53.216Z,3.16
2023-12-14T22:50:25.542Z,3.23
2023-12-14T22:50:53.220Z,3.21
2023-12-14T22:52:25.447Z,3.11
2023-12-14T22:52:53.126Z,3.07
2023-12-14T22:54:26.689Z,3.03
2023-12-14T22:55:25.344Z,3.05
2023-12-14T22:56:25.481Z,2.98
2023-12-14T22:57:25.309Z,2.92
2023-12-14T22:58:26.748Z,3.05
2023-12-14T22:58:52.930Z,2.98
2023-12-14T23:00:25.409Z,3.05
2023-12-14T23:01:25.303Z,2.97
2023-12-14T23:02:25.428Z,3.10
2023-12-14T23:03:26.434Z,3.04
2023-12-14T23:04:25.424Z,3.16
2023-12-14T23:05:19.333Z,3.13
2023-12-14T23:06:25.281Z,3.14
2023-12-14T23:07:27.978Z,3.14
2023-12-14T23:08:26.576Z,3.23
2023-12-14T23:09:25.342Z,3.23
2023-12-14T23:10:25.196Z,3.28
2023-12-14T23:10:53.219Z,3.22
2023-12-14T23:11:52.935Z,3.18
2023-12-14T23:13:26.655Z,3.16
2023-12-14T23:14:25.330Z,3.01
2023-12-14T23:14:52.929Z,3.05
2023-12-14T23:16:25.208Z,3.04
2023-12-14T23:17:22.330Z,3.08
2023-12-14T23:17:53.107Z,3.11
2023-12-14T23:19:25.394Z,3.10
2023-12-14T23:19:52.890Z,3.07
2023-12-14T23:21:26.248Z,3.19
2023-12-14T23:22:26.181Z,3.08
2023-12-14T23:23:19.216Z,3.04
2023-12-14T23:23:52.810Z,3.18
2023-12-14T23:25:25.137Z,3.10
2023-12-14T23:25:52.854Z,3.19
2023-12-14T23:27:26.282Z,3.19
2023-12-14T23:27:52.744Z,3.21
2023-12-14T23:29:25.208Z,3.18
2023-12-14T23:29:52.801Z,3.14
2023-12-14T23:31:26.338Z,3.11
2023-12-14T23:31:52.823Z,3.28
2023-12-14T23:33:25.084Z,3.13
2023-12-14T23:33:52.899Z,3.25
2023-12-14T23:35:29.246Z,3.14
2023-12-14T23:35:53.833Z,3.25
2023-12-14T23:37:24.928Z,3.16
2023-12-14T23:38:25.070Z,3.23
2023-12-14T23:39:25.009Z,3.28
2023-12-14T23:39:52.709Z,3.31
2023-12-14T23:41:26.099Z,3.31
2023-12-14T23:41:52.594Z,3.26
2023-12-14T23:43:25.108Z,3.34
2023-12-14T23:45:24.877Z,3.28
2023-12-14T23:46:25.004Z,3.42
2023-12-14T23:47:18.973Z,3.31
2023-12-14T23:48:25.031Z,3.42
2023-12-14T23:48:52.565Z,3.36
2023-12-14T23:50:27.187Z,3.41
2023-12-14T23:51:24.931Z,3.48
2023-12-14T23:52:24.908Z,3.42
2023-12-14T23:53:24.878Z,3.34
2023-12-14T23:53:52.546Z,3.34
2023-12-14T23:55:26.193Z,3.41
2023-12-14T23:55:52.451Z,3.34
2023-12-14T23:57:24.973Z,3.31
2023-12-14T23:58:24.778Z,3.31
2023-12-14T23:59:26.326Z,3.40
